Time;durP1;ratioP1;P1;durP2;ratioP2;P2;SDS_P1;SDS_P2;PMS_P1;PMS_P2;Temp;Humidity;BMP_temperature;BMP_pressure;BME280_temperature;BME280_humidity;BME280_pressure;Samples;Min_cycle;Max_cycle;Signal;HPM_P1;HPM_P2
2021/09/27 00:01:00;;;;;;;5.57;4.50;;;;;;;20.43;45.02;99868.53;5072160;28;20082;-76
2021/09/27 00:03:27;;;;;;;6.85;4.47;;;;;;;20.16;45.14;99827.13;5072524;28;20195;-75
2021/09/27 00:05:53;;;;;;;6.30;4.57;;;;;;;20.08;45.04;99812.19;5072029;28;20055;-75
2021/09/27 00:08:19;;;;;;;5.07;4.47;;;;;;;20.21;45.29;99846.81;5072062;28;20035;-76
2021/09/27 00:10:51;;;;;;;5.70;4.20;;;;;;;20.19;45.42;99851.59;5071962;28;20421;-76
2021/09/27 00:13:17;;;;;;;6.45;4.40;;;;;;;20.25;45.54;99860.56;5071907;28;20037;-75
2021/09/27 00:15:48;;;;;;;5.10;4.60;;;;;;;20.27;45.48;99863.84;5071716;28;20599;-75
2021/09/27 00:18:14;;;;;;;6.35;4.65;;;;;;;20.25;45.56;99857.88;5071768;28;20032;-75
2021/09/27 00:20:43;;;;;;;5.65;4.60;;;;;;;20.28;45.44;99852.06;5071752;28;20024;-75
2021/09/27 00:23:10;;;;;;;6.40;4.70;;;;;;;20.20;45.65;99833.66;5071528;28;20028;-74
2021/09/27 00:25:36;;;;;;;8.35;4.45;;;;;;;20.27;45.58;99842.38;5071567;28;20105;-75
2021/09/27 00:28:02;;;;;;;6.97;4.68;;;;;;;20.14;45.88;99831.91;5071555;28;20172;-74
2021/09/27 00:30:27;;;;;;;6.85;5.03;;;;;;;20.03;45.96;99825.47;5071425;28;20455;-76
2021/09/27 00:32:53;;;;;;;6.50;4.88;;;;;;;20.19;45.97;99854.28;5069928;28;20038;-75
2021/09/27 00:35:26;;;;;;;6.15;4.72;;;;;;;20.13;45.98;99841.00;5071282;28;20127;-75
2021/09/27 00:37:52;;;;;;;8.50;4.63;;;;;;;20.12;46.06;99842.03;5070211;28;20523;-75
2021/09/27 00:40:20;;;;;;;7.28;5.20;;;;;;;20.19;46.04;99846.22;5071669;28;20447;-76
2021/09/27 00:42:47;;;;;;;8.45;4.88;;;;;;;20.00;46.06;99821.38;5071361;28;20027;-75
2021/09/27 00:45:14;;;;;;;4.93;4.30;;;;;;;20.08;46.10;99838.19;5069964;28;20032;-75
2021/09/27 00:47:40;;;;;;;6.43;4.90;;;;;;;20.20;46.34;99855.09;5071307;28;20025;-76
2021/09/27 00:50:09;;;;;;;5.07;4.28;;;;;;;20.09;45.96;99839.81;5071304;28;20070;-76
2021/09/27 00:52:35;;;;;;;6.47;5.07;;;;;;;20.09;45.72;99848.69;5071311;28;20040;-75
2021/09/27 00:55:02;;;;;;;8.00;5.28;;;;;;;19.93;45.82;99838.63;5071271;28;20107;-76
2021/09/27 00:57:28;;;;;;;5.95;4.88;;;;;;;19.84;45.76;99842.69;5071203;28;20086;-77
2021/09/27 00:59:55;;;;;;;5.40;4.85;;;;;;;19.60;45.76;99828.44;5071325;28;20424;-76
2021/09/27 01:02:23;;;;;;;5.10;4.68;;;;;;;19.64;45.79;99851.03;5070978;28;20024;-75
2021/09/27 01:04:49;;;;;;;4.93;4.18;;;;;;;18.52;45.89;99686.59;5071314;28;20389;-75
2021/09/27 01:07:33;;;;;;;5.63;4.55;;;;;;;19.48;46.03;99839.09;5071192;28;20093;-76
2021/09/27 01:10:10;;;;;;;5.53;4.32;;;;;;;19.41;46.34;99843.72;5070979;28;20021;-75
2021/09/27 01:12:35;;;;;;;6.78;4.72;;;;;;;19.38;46.45;99852.22;5071463;28;20090;-77
2021/09/27 01:15:26;;;;;;;5.30;4.78;;;;;;;19.31;46.61;99851.47;5071055;28;20028;-76
2021/09/27 01:18:00;;;;;;;5.65;4.65;;;;;;;19.26;46.64;99856.69;5069780;28;20108;-76
2021/09/27 01:20:34;;;;;;;7.05;4.75;;;;;;;19.30;46.69;99853.31;5071014;28;20028;-75
2021/09/27 01:23:21;;;;;;;5.55;5.00;;;;;;;19.32;46.58;99855.78;5070998;28;20121;-76
2021/09/27 01:26:05;;;;;;;5.50;4.63;;;;;;;19.29;46.54;99864.25;5070885;28;20036;-76
2021/09/27 01:28:39;;;;;;;7.40;4.93;;;;;;;19.25;46.65;99863.06;5069638;28;20024;-75
2021/09/27 01:31:27;;;;;;;8.25;5.70;;;;;;;19.28;46.56;99854.59;5070994;28;20039;-74
2021/09/27 01:34:07;;;;;;;6.47;4.63;;;;;;;19.14;46.79;99845.09;5070503;28;20048;-75
2021/09/27 01:36:51;;;;;;;7.45;4.65;;;;;;;19.13;46.73;99843.47;5071040;28;20024;-75
2021/09/27 01:39:22;;;;;;;5.20;4.65;;;;;;;19.19;46.78;99840.72;5070739;28;20503;-75
2021/09/27 01:42:26;;;;;;;7.10;4.68;;;;;;;19.16;46.67;99848.38;5070716;28;20081;-74
2021/09/27 01:44:59;;;;;;;6.85;4.68;;;;;;;18.45;46.73;99731.31;5068624;28;20079;-75
2021/09/27 01:47:32;;;;;;;7.35;4.95;;;;;;;19.13;46.76;99846.16;5070388;28;20051;-75
2021/09/27 01:50:13;;;;;;;6.43;4.82;;;;;;;19.00;46.90;99831.09;5069424;28;20463;-75
2021/09/27 01:52:53;;;;;;;6.03;5.22;;;;;;;19.11;46.85;99845.56;5070807;28;20061;-75
2021/09/27 01:55:29;;;;;;;7.55;5.22;;;;;;;18.13;46.97;99688.72;5070570;28;20024;-74
2021/09/27 01:58:04;;;;;;;5.40;4.88;;;;;;;17.90;46.90;99675.22;5070691;28;20020;-76
2021/09/27 02:00:41;;;;;;;7.15;4.85;;;;;;;18.80;46.90;99823.31;5070932;28;20501;-75
2021/09/27 02:03:26;;;;;;;6.13;4.90;;;;;;;18.85;46.84;99839.50;5071940;28;20709;-75
2021/09/27 02:06:10;;;;;;;7.68;4.90;;;;;;;18.82;46.86;99836.47;5074449;28;20032;-76
2021/09/27 02:08:51;;;;;;;10.30;5.57;;;;;;;18.70;46.95;99836.41;5073930;28;20035;-74
2021/09/27 02:11:43;;;;;;;;;;;;;;;18.55;47.31;99847.41;5074474;28;20107;-76
2021/09/27 02:14:14;;;;;;;7.22;5.05;;;;;;;18.58;47.18;99846.16;5072822;28;19908;-76
2021/09/27 02:16:56;;;;;;;8.25;5.35;;;;;;;18.55;46.96;99860.78;5073819;28;20025;-75
2021/09/27 02:19:46;;;;;;;6.30;5.03;;;;;;;18.45;47.32;99852.44;5073871;28;20029;-76
2021/09/27 02:22:24;;;;;;;7.57;5.20;;;;;;;18.40;47.01;99855.78;5073870;28;20493;-75
2021/09/27 02:25:31;;;;;;;9.25;5.55;;;;;;;17.72;47.64;99754.25;5074292;28;20397;-81
2021/09/27 02:27:59;;;;;;;13.75;5.45;;;;;;;17.98;47.63;99816.53;5073683;28;20075;-81
2021/09/27 02:30:29;;;;;;;7.97;5.45;;;;;;;18.22;47.50;99854.94;5074034;28;20032;-81
2021/09/27 02:33:18;;;;;;;5.80;4.93;;;;;;;18.04;47.61;99823.66;5073625;28;20097;-81
2021/09/27 02:35:48;;;;;;;10.70;5.22;;;;;;;17.66;47.98;99776.50;5073761;28;20025;-81
2021/09/27 02:38:19;;;;;;;6.93;5.53;;;;;;;18.16;47.74;99858.50;5073572;28;20078;-81
2021/09/27 02:40:47;;;;;;;7.32;5.43;;;;;;;18.10;47.96;99858.34;5073612;28;20416;-81
2021/09/27 02:43:13;;;;;;;11.10;6.63;;;;;;;17.77;47.93;99807.03;5073924;28;20029;-81
2021/09/27 02:45:45;;;;;;;7.97;5.30;;;;;;;17.96;48.58;99854.16;5073662;28;20036;-81
2021/09/27 02:48:13;;;;;;;;;;;;;;;17.83;48.80;99854.22;5074106;28;20024;-81
2021/09/27 02:50:42;;;;;;;7.35;6.10;;;;;;;17.98;48.23;99857.41;5073537;28;20328;-81
2021/09/27 02:53:08;;;;;;;7.63;5.57;;;;;;;18.04;48.24;99853.06;5073375;28;20556;-81
2021/09/27 02:55:58;;;;;;;6.30;5.38;;;;;;;18.09;48.43;99863.91;5073251;28;20079;-81
2021/09/27 02:58:38;;;;;;;7.47;5.70;;;;;;;18.07;48.39;99861.44;5073113;28;20519;-81
2021/09/27 03:01:16;;;;;;;7.85;5.50;;;;;;;17.62;48.63;99804.66;5073376;28;20099;-81
2021/09/27 03:04:04;;;;;;;7.50;5.60;;;;;;;17.94;48.40;99853.56;5073350;28;20400;-81
2021/09/27 03:06:45;;;;;;;11.70;5.78;;;;;;;16.76;48.44;99671.00;5073128;28;20060;-81
2021/09/27 03:09:38;;;;;;;6.25;5.65;;;;;;;17.87;48.82;99850.13;5073136;28;20497;-81
2021/09/27 03:12:16;;;;;;;9.68;5.30;;;;;;;17.29;48.68;99764.84;5073113;28;20082;-81
2021/09/27 03:15:01;;;;;;;6.38;5.43;;;;;;;17.86;48.61;99856.50;5070745;28;20037;-81
2021/09/27 03:17:48;;;;;;;12.25;6.22;;;;;;;17.70;48.71;99825.78;5073036;28;20021;-81
2021/09/27 03:20:32;;;;;;;8.35;6.38;;;;;;;17.66;48.29;99819.22;5072938;28;20074;-81
2021/09/27 03:23:15;;;;;;;8.10;5.35;;;;;;;17.18;48.67;99749.53;5072760;28;20060;-81
2021/09/27 03:26:06;;;;;;;8.88;5.80;;;;;;;17.56;48.71;99818.03;5072539;28;20031;-76
2021/09/27 03:28:50;;;;;;;7.70;5.75;;;;;;;17.74;48.71;99858.19;5072736;28;20075;-74
2021/09/27 03:31:39;;;;;;;15.15;6.45;;;;;;;17.71;48.94;99850.63;5072649;28;20024;-76
2021/09/27 03:34:14;;;;;;;7.60;5.80;;;;;;;17.70;48.58;99849.81;5071169;28;20056;-74
2021/09/27 03:36:53;;;;;;;8.95;5.63;;;;;;;17.72;48.88;99857.59;5072412;28;20032;-76
2021/09/27 03:39:27;;;;;;;6.72;5.68;;;;;;;17.69;49.10;99848.16;5072268;28;20024;-76
2021/09/27 03:42:07;;;;;;;7.65;5.97;;;;;;;17.70;49.37;99870.34;5072385;28;20029;-75
2021/09/27 03:44:52;;;;;;;12.18;6.05;;;;;;;17.21;49.19;99767.78;5072385;28;20104;-75
2021/09/27 03:47:27;;;;;;;6.45;5.65;;;;;;;17.41;49.05;99784.47;5072367;28;20029;-75
2021/09/27 03:50:03;;;;;;;10.05;6.55;;;;;;;17.77;48.87;99844.41;5071980;28;20085;-75
2021/09/27 03:52:44;;;;;;;10.52;6.82;;;;;;;17.15;49.38;99756.13;5072044;28;20455;-76
2021/09/27 03:55:19;;;;;;;10.93;6.55;;;;;;;17.75;49.03;99851.81;5071890;28;20029;-75
2021/09/27 03:57:54;;;;;;;7.75;5.68;;;;;;;17.48;48.76;99819.94;5072239;28;20025;-75
2021/09/27 04:00:37;;;;;;;7.10;5.78;;;;;;;17.64;49.19;99844.47;5072158;28;20054;-76
2021/09/27 04:03:08;;;;;;;6.18;5.43;;;;;;;17.70;48.89;99863.16;5071850;28;20040;-74
2021/09/27 04:05:48;;;;;;;6.25;5.40;;;;;;;17.62;48.94;99855.38;5072152;28;20039;-75
2021/09/27 04:08:53;;;;;;;8.55;5.65;;;;;;;17.57;48.98;99852.53;5072242;28;20020;-75
2021/09/27 04:11:29;;;;;;;10.02;5.50;;;;;;;17.40;49.16;99835.41;5059931;28;20119;-76
2021/09/27 04:14:09;;;;;;;7.57;5.88;;;;;;;17.50;49.13;99857.09;5071860;28;20025;-75
2021/09/27 04:17:04;;;;;;;7.93;5.95;;;;;;;17.46;49.34;99861.25;5071870;28;20024;-75
2021/09/27 04:19:54;;;;;;;9.85;6.93;;;;;;;17.42;49.78;99860.03;5071636;28;20091;-74
2021/09/27 04:22:38;;;;;;;12.02;6.55;;;;;;;16.68;49.87;99764.56;5071897;28;20027;-75
2021/09/27 04:25:17;;;;;;;11.13;6.22;;;;;;;17.09;49.71;99839.69;5071811;28;20059;-75
2021/09/27 04:28:07;;;;;;;12.30;7.82;;;;;;;17.24;50.21;99891.94;5071493;28;20074;-76
2021/09/27 04:30:38;;;;;;;11.85;7.65;;;;;;;17.20;49.95;99869.41;5071329;28;20054;-75
2021/09/27 04:33:21;;;;;;;12.48;7.60;;;;;;;17.20;50.35;99869.41;5071243;28;20570;-76
2021/09/27 04:36:17;;;;;;;9.93;7.22;;;;;;;17.15;50.39;99872.69;5071308;28;20031;-75
2021/09/27 04:38:43;;;;;;;9.35;7.22;;;;;;;16.61;50.10;99798.41;5071486;28;20024;-76
2021/09/27 04:41:24;;;;;;;9.13;6.60;;;;;;;17.12;50.70;99875.78;5071528;28;20017;-76
2021/09/27 04:44:01;;;;;;;11.30;7.53;;;;;;;17.12;50.40;99873.13;5071375;28;20489;-75
2021/09/27 04:46:38;;;;;;;11.25;7.03;;;;;;;17.01;50.35;99863.91;5071260;28;20497;-75
2021/09/27 04:49:31;;;;;;;14.50;7.53;;;;;;;17.14;50.21;99879.88;5071349;28;20107;-75
2021/09/27 04:52:22;;;;;;;15.63;7.40;;;;;;;17.08;50.12;99875.38;5071414;28;20024;-75
2021/09/27 04:54:53;;;;;;;15.43;8.32;;;;;;;17.13;50.14;99885.44;5070429;28;20065;-75
2021/09/27 04:57:27;;;;;;;12.90;7.50;;;;;;;17.18;50.36;99890.13;5071075;28;20154;-74
2021/09/27 05:00:19;;;;;;;17.67;7.80;;;;;;;17.25;50.29;99890.91;5071399;28;20016;-76
2021/09/27 05:03:13;;;;;;;12.05;7.90;;;;;;;16.29;50.02;99736.97;5069859;28;20023;-76
2021/09/27 05:06:11;;;;;;;15.73;8.27;;;;;;;17.33;49.87;99888.00;5071198;28;20029;-75
2021/09/27 05:08:54;;;;;;;8.60;7.10;;;;;;;17.36;49.91;99893.72;5069729;28;20066;-75
2021/09/27 05:11:33;;;;;;;10.02;7.50;;;;;;;17.23;49.71;99875.13;5070949;28;20027;-76
2021/09/27 05:14:27;;;;;;;13.23;8.20;;;;;;;17.32;49.45;99875.69;5070939;28;20027;-76
2021/09/27 05:16:59;;;;;;;10.63;7.22;;;;;;;17.44;49.65;99895.34;5070516;28;20103;-75
2021/09/27 05:19:33;;;;;;;12.48;6.38;;;;;;;17.45;49.17;99900.47;5070944;28;20105;-75
2021/09/27 05:22:14;;;;;;;13.07;6.43;;;;;;;17.14;49.29;99842.53;5070874;28;20052;-76
2021/09/27 05:24:42;;;;;;;12.10;8.15;;;;;;;17.47;49.38;99881.56;5069821;28;20029;-75
2021/09/27 05:27:16;;;;;;;13.48;7.40;;;;;;;17.51;49.45;99884.63;5070888;28;20024;-76
2021/09/27 05:29:51;;;;;;;16.52;7.35;;;;;;;17.55;49.60;99885.81;5070692;28;20024;-74
2021/09/27 05:32:43;;;;;;;17.38;8.10;;;;;;;17.59;49.62;99900.38;5070862;28;20456;-75
2021/09/27 05:35:24;;;;;;;23.13;7.82;;;;;;;17.69;49.53;99887.41;5070681;28;20048;-76
2021/09/27 05:37:52;;;;;;;12.70;7.50;;;;;;;17.74;49.23;99885.72;5071743;28;20033;-76
2021/09/27 05:40:17;;;;;;;14.02;7.45;;;;;;;17.80;48.99;99892.06;5073406;28;20024;-76
2021/09/27 05:43:01;;;;;;;16.60;8.95;;;;;;;17.89;49.16;99900.66;5074269;28;20024;-75
2021/09/27 05:45:54;;;;;;;16.08;8.68;;;;;;;17.98;48.93;99894.00;5074405;28;20401;-76
2021/09/27 05:49:04;;;;;;;16.77;9.45;;;;;;;18.08;48.62;99891.66;5072985;28;20016;-75
2021/09/27 05:51:35;;;;;;;19.15;8.52;;;;;;;18.12;48.36;99916.09;5070977;28;20437;-76
2021/09/27 05:54:34;;;;;;;14.55;8.30;;;;;;;18.18;48.43;99897.34;5074122;28;20106;-75
2021/09/27 05:57:21;;;;;;;15.77;7.82;;;;;;;17.09;48.30;99700.94;5073821;28;20033;-75
2021/09/27 06:00:10;;;;;;;16.95;7.90;;;;;;;18.39;48.15;99888.09;5074064;28;20020;-75
2021/09/27 06:02:49;;;;;;;19.38;8.27;;;;;;;18.49;48.13;99882.25;5074059;28;20052;-75
2021/09/27 06:05:50;;;;;;;17.50;8.65;;;;;;;18.49;47.80;99868.88;5074160;28;20024;-77
2021/09/27 06:08:20;;;;;;;13.05;8.60;;;;;;;18.67;47.79;99874.28;5070135;28;20028;-76
2021/09/27 06:11:00;;;;;;;16.35;7.70;;;;;;;18.66;47.78;99870.81;5074122;28;20054;-76
2021/09/27 06:13:34;;;;;;;16.15;8.98;;;;;;;17.71;47.80;99703.75;5073675;28;20032;-77
2021/09/27 06:16:03;;;;;;;15.30;9.07;;;;;;;18.94;47.69;99880.16;5073514;28;20028;-75
2021/09/27 06:18:46;;;;;;;18.05;9.63;;;;;;;19.01;47.51;99884.38;5073992;28;20481;-75
2021/09/27 06:21:17;;;;;;;15.10;9.85;;;;;;;19.13;47.39;99888.97;5073827;28;20029;-76
2021/09/27 06:24:01;;;;;;;19.23;9.23;;;;;;;18.11;47.48;99712.19;5073723;28;20028;-76
2021/09/27 06:26:31;;;;;;;18.08;9.75;;;;;;;18.96;47.17;99837.94;5073280;28;20033;-75
2021/09/27 06:29:22;;;;;;;19.67;12.60;;;;;;;19.25;47.37;99876.47;5069590;28;20085;-76
2021/09/27 06:32:07;;;;;;;25.23;14.05;;;;;;;19.44;47.04;99899.50;5064891;28;20103;-73
2021/09/27 06:34:52;;;;;;;13.45;9.88;;;;;;;19.51;46.84;99897.56;5067488;28;20079;-77
2021/09/27 06:37:21;;;;;;;23.52;9.73;;;;;;;19.43;46.61;99864.91;5062293;28;20029;-77
2021/09/27 06:39:47;;;;;;;17.45;10.50;;;;;;;19.70;46.56;99887.63;5066145;28;20009;-75
2021/09/27 06:42:13;;;;;;;17.75;9.48;;;;;;;19.79;46.70;99877.41;5072086;28;20440;-77
2021/09/27 06:44:43;;;;;;;19.33;9.55;;;;;;;19.87;46.53;99871.69;5071274;28;20029;-75
2021/09/27 06:47:09;;;;;;;17.08;12.70;;;;;;;19.41;46.35;99798.22;5072177;28;20107;-76
2021/09/27 06:49:34;;;;;;;12.13;8.90;;;;;;;19.93;46.33;99854.69;5071774;28;20424;-77
2021/09/27 06:52:00;;;;;;;15.02;10.52;;;;;;;18.95;46.00;99689.94;5072475;28;20028;-75
2021/09/27 06:54:25;;;;;;;13.80;9.25;;;;;;;19.95;45.86;99847.25;5072252;28;20036;-76
2021/09/27 06:56:51;;;;;;;14.43;9.70;;;;;;;20.22;45.74;99872.59;5069788;28;20028;-76
2021/09/27 06:59:20;;;;;;;13.55;9.18;;;;;;;20.27;45.63;99870.00;5071987;28;20463;-75
2021/09/27 07:01:46;;;;;;;17.83;10.70;;;;;;;20.18;45.52;99841.09;5072803;28;20463;-75
2021/09/27 07:04:11;;;;;;;17.55;9.73;;;;;;;20.39;45.15;99872.72;5072348;28;20078;-76
2021/09/27 07:06:37;;;;;;;17.45;11.00;;;;;;;20.20;45.31;99841.69;5071887;28;20457;-77
2021/09/27 07:09:03;;;;;;;16.00;9.57;;;;;;;20.50;45.12;99877.25;5072649;28;20028;-76
2021/09/27 07:11:29;;;;;;;20.55;17.67;;;;;;;19.74;45.24;99756.72;5072538;28;20025;-76
2021/09/27 07:13:54;;;;;;;19.35;10.98;;;;;;;19.82;44.90;99767.06;5072289;28;20499;-76
2021/09/27 07:16:19;;;;;;;17.95;10.50;;;;;;;20.53;44.91;99867.94;5072309;28;20031;-74
2021/09/27 07:18:45;;;;;;;17.75;9.55;;;;;;;20.74;44.60;99891.47;5072234;28;20027;-77
2021/09/27 07:21:11;;;;;;;22.65;14.63;;;;;;;20.84;44.73;99894.41;5067425;28;20024;-73
2021/09/27 07:23:38;;;;;;;18.60;11.70;;;;;;;20.94;44.97;99899.97;5069488;28;20035;-74
2021/09/27 07:26:11;;;;;;;10.80;7.88;;;;;;;21.00;44.72;99897.41;5070602;28;20028;-76
2021/09/27 07:28:37;;;;;;;14.45;8.55;;;;;;;20.77;44.58;99850.75;5071803;28;20055;-73
2021/09/27 07:31:03;;;;;;;13.75;8.23;;;;;;;21.12;44.24;99900.88;5071529;28;20063;-75
2021/09/27 07:33:29;;;;;;;16.67;8.10;;;;;;;21.18;44.25;99903.41;5070342;28;20503;-76
2021/09/27 07:35:55;;;;;;;15.75;10.15;;;;;;;20.81;44.12;99829.66;5071867;28;20044;-76
2021/09/27 07:38:22;;;;;;;14.50;11.23;;;;;;;20.27;44.03;99733.25;5072162;28;20028;-76
2021/09/27 07:40:47;;;;;;;11.05;7.28;;;;;;;20.85;44.20;99812.81;5072007;28;20020;-77
2021/09/27 07:43:13;;;;;;;15.65;8.93;;;;;;;21.56;44.20;99899.34;5069315;28;20032;-75
2021/09/27 07:45:38;;;;;;;10.77;7.40;;;;;;;21.56;43.45;99897.47;5071401;28;20162;-76
2021/09/27 07:48:06;;;;;;;12.35;7.03;;;;;;;21.61;43.68;99894.06;5071752;28;20012;-75
2021/09/27 07:50:33;;;;;;;12.43;7.05;;;;;;;21.75;43.52;99886.50;5071585;28;20417;-76
2021/09/27 07:52:59;;;;;;;11.98;9.18;;;;;;;21.60;43.29;99859.38;5071672;28;20058;-76
2021/09/27 07:55:24;;;;;;;12.68;6.93;;;;;;;21.81;42.98;99877.47;5071566;28;20082;-76
2021/09/27 07:57:50;;;;;;;12.68;7.70;;;;;;;21.72;42.90;99868.19;5071788;28;20028;-75
2021/09/27 08:00:16;;;;;;;10.82;7.90;;;;;;;22.03;42.63;99889.16;5053843;28;20021;-75
2021/09/27 08:02:43;;;;;;;10.13;7.15;;;;;;;21.67;42.66;99831.28;5051515;28;20017;-75
2021/09/27 08:05:18;;;;;;;9.65;6.45;;;;;;;22.19;42.59;99887.53;5051738;28;20103;-75
2021/09/27 08:07:43;;;;;;;11.02;6.30;;;;;;;22.16;42.25;99871.88;5051349;28;20025;-76
2021/09/27 08:10:10;;;;;;;10.50;6.30;;;;;;;21.15;42.21;99705.19;5051452;28;20573;-75
2021/09/27 08:12:37;;;;;;;8.27;6.13;;;;;;;22.36;42.08;99887.53;5068608;28;20107;-75
2021/09/27 08:15:14;;;;;;;9.13;6.13;;;;;;;22.46;42.03;99893.06;5071511;28;20060;-76
2021/09/27 08:17:41;;;;;;;10.68;8.50;;;;;;;22.08;41.69;99822.03;5071469;28;20025;-75
2021/09/27 08:20:10;;;;;;;18.90;12.18;;;;;;;22.70;41.95;99889.09;5071566;28;20444;-76
2021/09/27 08:22:35;;;;;;;10.18;6.70;;;;;;;22.69;41.43;99874.00;5071262;28;20074;-75
2021/09/27 08:25:01;;;;;;;8.30;6.63;;;;;;;22.80;41.29;99904.59;5070141;28;20024;-75
2021/09/27 08:27:26;;;;;;;11.65;6.65;;;;;;;22.91;40.78;99881.31;5071156;28;20028;-76
2021/09/27 08:29:52;;;;;;;11.55;7.65;;;;;;;23.00;40.96;99874.44;5071197;28;20027;-75
2021/09/27 08:32:17;;;;;;;11.18;6.15;;;;;;;23.07;40.56;99870.50;5071085;28;20059;-75
2021/09/27 08:34:43;;;;;;;9.25;5.55;;;;;;;23.00;40.29;99848.31;5071086;28;20045;-76
2021/09/27 08:37:10;;;;;;;10.90;6.88;;;;;;;23.31;40.13;99870.22;5071114;28;20146;-76
2021/09/27 08:39:36;;;;;;;7.25;5.32;;;;;;;23.40;40.01;99866.81;5070931;28;20523;-74
2021/09/27 08:42:13;;;;;;;11.27;8.32;;;;;;;23.46;39.88;99856.91;5070958;28;20060;-74
2021/09/27 08:45:02;;;;;;;10.93;7.20;;;;;;;23.60;39.75;99860.84;5071032;28;20031;-73
2021/09/27 08:47:36;;;;;;;10.13;6.50;;;;;;;23.76;39.34;99853.69;5071024;28;20369;-73
2021/09/27 08:50:10;;;;;;;8.63;5.45;;;;;;;23.87;39.14;99863.53;5071039;28;20115;-76
2021/09/27 08:52:39;;;;;;;9.10;5.53;;;;;;;23.54;38.93;99789.06;5071098;28;20035;-76
2021/09/27 08:55:11;;;;;;;11.52;6.07;;;;;;;24.13;38.44;99861.03;5071212;28;20030;-75
2021/09/27 08:57:43;;;;;;;11.43;5.13;;;;;;;24.26;37.94;99863.28;5070686;28;20028;-75
2021/09/27 09:00:11;;;;;;;;;;;;;;;24.28;37.73;99864.66;5071343;28;20020;-75
2021/09/27 09:03:04;;;;;;;7.75;5.30;;;;;;;24.57;37.61;99853.53;5070816;28;19908;-75
2021/09/27 09:05:49;;;;;;;11.77;9.82;;;;;;;24.82;37.46;99850.13;5070936;28;20016;-76
2021/09/27 09:08:17;;;;;;;9.32;6.90;;;;;;;25.07;37.20;99841.31;5070997;28;20090;-76
2021/09/27 09:11:21;;;;;;;8.27;5.60;;;;;;;25.29;36.56;99840.06;5069359;28;20025;-75
2021/09/27 09:13:52;;;;;;;12.98;6.97;;;;;;;25.37;36.01;99838.72;5073572;28;20044;-75
2021/09/27 09:16:21;;;;;;;14.35;8.60;;;;;;;25.23;36.10;99789.75;5075151;28;20021;-76
2021/09/27 09:19:02;;;;;;;13.80;5.38;;;;;;;25.64;35.43;99835.78;5074848;28;20083;-76
2021/09/27 09:21:37;;;;;;;7.72;5.57;;;;;;;25.38;35.45;99761.16;5074735;28;20020;-75
2021/09/27 09:24:14;;;;;;;10.13;6.85;;;;;;;25.64;35.17;99773.56;5073493;28;20035;-75
2021/09/27 09:26:46;;;;;;;9.10;6.35;;;;;;;25.95;35.09;99809.56;5074712;28;20121;-76
2021/09/27 09:29:16;;;;;;;11.10;7.45;;;;;;;26.26;34.52;99821.16;5074724;28;20077;-75
2021/09/27 09:31:46;;;;;;;11.02;8.18;;;;;;;26.33;34.39;99791.13;5074857;28;20099;-76
2021/09/27 09:34:18;;;;;;;13.80;9.35;;;;;;;26.68;34.16;99798.31;5074484;28;20040;-75
2021/09/27 09:36:45;;;;;;;14.15;9.55;;;;;;;26.84;33.56;99806.09;5074666;28;20488;-75
2021/09/27 09:39:20;;;;;;;8.63;7.35;;;;;;;26.96;33.13;99805.78;5074430;28;20023;-74
2021/09/27 09:41:48;;;;;;;16.20;13.23;;;;;;;27.16;32.61;99800.25;5074515;28;20102;-74
2021/09/27 09:44:38;;;;;;;7.28;6.20;;;;;;;27.40;31.71;99796.84;5074565;28;20028;-75
2021/09/27 09:47:19;;;;;;;10.43;9.38;;;;;;;26.71;31.90;99673.94;5074454;28;20421;-75
2021/09/27 09:49:58;;;;;;;20.33;18.50;;;;;;;27.35;31.59;99751.59;5074391;28;20021;-74
2021/09/27 09:52:46;;;;;;;21.73;19.38;;;;;;;27.77;31.27;99799.84;5074502;28;20020;-76
2021/09/27 09:55:43;;;;;;;27.67;24.63;;;;;;;27.97;31.04;99790.69;5059736;28;20569;-75
2021/09/27 09:58:14;;;;;;;15.65;13.82;;;;;;;27.53;31.14;99693.16;5054290;28;20021;-74
2021/09/27 10:00:52;;;;;;;7.20;5.97;;;;;;;28.22;30.33;99788.81;5054158;28;20025;-74
2021/09/27 10:03:21;;;;;;;5.90;4.70;;;;;;;28.26;30.56;99782.59;5053795;28;20485;-76
2021/09/27 10:05:55;;;;;;;21.23;17.52;;;;;;;28.10;30.70;99765.59;5053566;28;20143;-74
2021/09/27 10:08:24;;;;;;;9.85;7.30;;;;;;;28.32;30.53;99772.47;5052356;28;20036;-75
2021/09/27 10:10:58;;;;;;;7.25;5.47;;;;;;;28.55;30.27;99782.50;5051929;28;20021;-76
2021/09/27 10:13:51;;;;;;;23.48;19.50;;;;;;;28.80;29.42;99789.50;5054926;28;20057;-75
2021/09/27 10:16:38;;;;;;;18.08;16.08;;;;;;;28.86;29.63;99782.94;5053843;28;20032;-74
2021/09/27 10:19:27;;;;;;;8.18;5.18;;;;;;;28.93;29.78;99760.84;5053651;28;20068;-74
2021/09/27 10:21:54;;;;;;;7.57;5.47;;;;;;;29.12;29.33;99777.16;5053620;28;20025;-76
2021/09/27 10:24:29;;;;;;;13.18;9.70;;;;;;;29.30;29.67;99768.19;5053253;28;20104;-80
2021/09/27 10:27:10;;;;;;;12.30;10.23;;;;;;;29.26;29.32;99757.09;5052525;28;20017;-81
2021/09/27 10:29:36;;;;;;;9.80;7.57;;;;;;;29.48;29.24;99751.03;5053503;28;20560;-81
2021/09/27 10:32:14;;;;;;;23.38;19.27;;;;;;;29.71;28.95;99754.72;5053477;28;20029;-80
2021/09/27 10:34:39;;;;;;;9.15;6.68;;;;;;;29.84;28.66;99761.34;5051927;28;20127;-81
2021/09/27 10:37:14;;;;;;;6.70;5.72;;;;;;;29.63;28.86;99701.81;5053271;28;20159;-79
2021/09/27 10:39:40;;;;;;;4.95;4.47;;;;;;;29.61;28.39;99692.31;5053322;28;20451;-81
2021/09/27 10:42:07;;;;;;;7.25;5.10;;;;;;;29.87;28.62;99741.69;5053422;28;20033;-81
2021/09/27 10:44:52;;;;;;;8.35;6.68;;;;;;;29.87;28.66;99734.31;5053439;28;20623;-80
2021/09/27 10:47:25;;;;;;;10.48;5.20;;;;;;;29.90;28.10;99754.69;5053221;28;20139;-81
2021/09/27 10:49:58;;;;;;;8.98;5.30;;;;;;;29.92;28.78;99723.34;5052833;28;20387;-81
2021/09/27 10:52:35;;;;;;;9.95;4.63;;;;;;;30.00;28.42;99709.03;5052884;28;20359;-80
2021/09/27 10:55:27;;;;;;;7.72;5.78;;;;;;;30.13;28.53;99720.25;5053068;28;20024;-81
2021/09/27 10:58:03;;;;;;;9.30;6.13;;;;;;;30.25;28.17;99715.91;5053154;28;20549;-81
2021/09/27 11:00:40;;;;;;;14.10;11.65;;;;;;;30.23;28.72;99715.41;5052877;28;20032;-80
2021/09/27 11:03:09;;;;;;;6.72;5.55;;;;;;;30.31;28.65;99711.16;5051518;28;20108;-81
2021/09/27 11:05:54;;;;;;;11.40;5.90;;;;;;;30.43;28.35;99707.91;5052290;28;20060;-80
2021/09/27 11:08:53;;;;;;;7.43;4.60;;;;;;;30.21;28.04;99663.16;5052601;28;20020;-80
2021/09/27 11:11:27;;;;;;;7.07;4.78;;;;;;;30.60;28.25;99699.94;5045476;28;20124;-81
2021/09/27 11:13:54;;;;;;;7.03;4.85;;;;;;;30.77;27.54;99713.72;5052054;28;20029;-81
2021/09/27 11:16:30;;;;;;;7.30;6.18;;;;;;;30.86;27.40;99694.72;5051220;28;20036;-79
2021/09/27 11:19:32;;;;;;;5.40;4.90;;;;;;;30.98;27.22;99686.78;5052803;28;20067;-81
2021/09/27 11:22:35;;;;;;;5.45;4.38;;;;;;;30.90;26.82;99685.63;5052718;28;20033;-81
2021/09/27 11:25:28;;;;;;;5.05;4.55;;;;;;;30.70;26.98;99656.13;5052477;28;20032;-75
2021/09/27 11:28:11;;;;;;;6.05;3.97;;;;;;;30.74;26.73;99678.91;5052216;28;20065;-75
2021/09/27 11:31:03;;;;;;;5.72;3.90;;;;;;;30.44;27.05;99671.38;5052191;28;20210;-74
2021/09/27 11:33:31;;;;;;;8.60;4.55;;;;;;;29.94;28.21;99669.38;5052136;28;20057;-75
2021/09/27 11:36:05;;;;;;;8.00;5.40;;;;;;;29.21;28.58;99609.50;5051508;28;20037;-74
2021/09/27 11:38:42;;;;;;;4.78;4.38;;;;;;;29.33;28.49;99656.06;5052246;28;20025;-75
2021/09/27 11:41:07;;;;;;;5.43;4.93;;;;;;;29.25;28.90;99654.03;5052042;28;20025;-76
2021/09/27 11:43:54;;;;;;;6.75;6.05;;;;;;;29.09;29.59;99654.31;5052277;28;20468;-76
2021/09/27 11:46:33;;;;;;;9.10;7.53;;;;;;;28.96;29.54;99655.03;5052160;28;20033;-76
2021/09/27 11:49:25;;;;;;;8.75;5.70;;;;;;;29.00;28.82;99656.09;5051775;28;20100;-74
2021/09/27 11:52:10;;;;;;;5.82;4.45;;;;;;;29.10;29.19;99644.22;5051674;28;20025;-75
2021/09/27 11:54:48;;;;;;;8.30;5.70;;;;;;;29.14;29.47;99633.56;5050959;28;20031;-76
2021/09/27 11:57:36;;;;;;;12.95;5.35;;;;;;;29.18;29.17;99629.16;5051965;28;20032;-73
2021/09/27 12:00:08;;;;;;;6.47;5.47;;;;;;;29.13;29.19;99621.88;5051673;28;20021;-76
2021/09/27 12:02:46;;;;;;;6.60;5.15;;;;;;;29.06;29.50;99629.63;5051570;28;20040;-76
2021/09/27 12:05:40;;;;;;;6.60;5.00;;;;;;;29.02;29.05;99621.25;5051759;28;20033;-76
2021/09/27 12:08:30;;;;;;;8.70;4.20;;;;;;;28.93;29.14;99620.28;5036454;28;20127;-75
2021/09/27 12:11:04;;;;;;;10.27;6.70;;;;;;;28.74;29.96;99603.19;5046177;28;20133;-75